Terminal Aerodrome Forecast
Issued by NWS Portland, OR

Home | Current Version | Previous Version | Text Only | Print | Product List | Glossary On
Versions: 1 2 3 4 5 6 7 8 9 10 11 12 13 14 15 16 17 18 19 20
000
FTUS46 KPQR 232108 AAB
TAFHIO
TAF AMD
KHIO 232108Z 2321/2418 18011KT P6SM -RA SCT025 BKN035 OVC050
     FM240100 18010KT P6SM -RA SCT015 BKN025 OVC040
     FM240600 19011G22KT 4SM RA BR BKN018 OVC025
     FM241300 22012KT P6SM -SHRA BKN025 BKN045=

USA.gov is the U.S. government's official web portal to all federal, state and local government web resources and services.